• Join FlightAware (Why Join?)
  • Login
  • US Flag 
01:37PM EST


 

Airport Tracker/Info


-or-


 

Live Flight TrackerFlight Track Log ✈ N93XP ✈ 08-Jul-2013 ✈ KGYY - KCMI

Flight Track Log - Related Links

Times and Time Zones

All times are in EDT time to prevent confusion due to time zone crossing. See the N93XP flight status page for this flight to view local times or setup timezone preferences in your user account.

Time Position Orientation Groundspeed Altitude Reporting Facility
EDT Latitude Longitude Course Direction KTS MPH feet Rate Location/Type
09:11AM 41.6061 -87.4683 272° West 174 200 2,400  Level Chicago Center
09:12AM 41.5533 -87.5075 209° Southwest 204 235 3,100 1,200 Climbing Chicago Center
09:13AM 41.4742 -87.5283 191° South 254 292 4,900 840 Climbing Chicago Center
09:14AM 41.4019 -87.5103 169° South 263 303 4,900 300 Level Chicago Center
09:15AM 41.3367 -87.5369 197° South 249 287 5,600 840 Climbing Chicago Center
09:17AM 41.2183 -87.4667 272° West  Level FlightAware Approximate
09:17AM 41.2725 -87.5753 204° Southwest 251 289 6,700  Level Chicago Center
09:18AM 41.2067 -87.6128 203° Southwest 255 293 7,700 960 Climbing Chicago Center
09:19AM 41.1400 -87.6514 204° Southwest 259 298 8,800 1,080 Climbing Chicago Center
09:20AM 41.0581 -87.6994 204° Southwest 267 307 10,000 540 Climbing Chicago Center
09:21AM 40.9797 -87.7431 203° Southwest 299 344 10,000  Level Chicago Center
09:22AM 40.8964 -87.7908 203° Southwest 323 372 10,000 -60 Level Chicago Center
09:23AM 40.8164 -87.8369 204° Southwest 317 365 9,900  Descending Chicago Center
09:24AM 40.7356 -87.8842 204° Southwest 318 366 10,000  Climbing Chicago Center
09:25AM 40.6528 -87.9283 202° Southwest 319 367 9,900 -540 Descending Chicago Center
09:26AM 40.5575 -87.9786 202° Southwest 310 357 8,900 -1,080 Descending Chicago Center
09:27AM 40.4892 -88.0147 202° Southwest 275 316 7,700 -1,200 Descending Chicago Center
09:28AM 40.4211 -88.0500 202° Southwest 264 304 6,500 -1,200 Descending Chicago Center
09:29AM 40.3522 -88.0856 201° Southwest 267 307 5,300 -1,260 Descending Chicago Center
09:30AM 40.2836 -88.1219 202° Southwest 268 308 4,000 -1,200 Descending Chicago Center
09:31AM 40.2142 -88.1572 201° Southwest 268 308 2,900 -600 Descending Chicago Center
09:32AM 40.1372 -88.1983 202° Southwest 266 306 2,800 -420 Descending Chicago Center
09:33AM 40.0900 -88.2214 200° South 236 272 2,100 -540 Descending Chicago Center
09:34AM 40.0608 -88.2392 205° Southwest 203 234 1,800 -300 Descending Chicago Center